sensor_id;sensor_type;location;lat;lon;timestamp;temperature;humidity
14739;DHT22;7461;52.440;13.540;2022-09-09T00:00:18;15.00;99.90
14739;DHT22;7461;52.440;13.540;2022-09-09T00:02:53;15.00;99.90
14739;DHT22;7461;52.440;13.540;2022-09-09T00:05:29;15.00;99.90
14739;DHT22;7461;52.440;13.540;2022-09-09T00:08:02;15.00;99.90
14739;DHT22;7461;52.440;13.540;2022-09-09T00:10:33;15.00;99.90
14739;DHT22;7461;52.440;13.540;2022-09-09T00:13:10;15.00;99.90
14739;DHT22;7461;52.440;13.540;2022-09-09T00:15:47;15.00;99.90
14739;DHT22;7461;52.440;13.540;2022-09-09T00:18:23;15.10;99.90
14739;DHT22;7461;52.440;13.540;2022-09-09T00:20:56;15.10;99.90
14739;DHT22;7461;52.440;13.540;2022-09-09T00:23:25;15.10;99.90
14739;DHT22;7461;52.440;13.540;2022-09-09T00:26:01;15.10;99.90
14739;DHT22;7461;52.440;13.540;2022-09-09T00:28:35;15.10;99.90
14739;DHT22;7461;52.440;13.540;2022-09-09T00:31:12;15.00;99.90
14739;DHT22;7461;52.440;13.540;2022-09-09T00:33:39;15.00;99.90
14739;DHT22;7461;52.440;13.540;2022-09-09T00:36:13;14.90;99.90
14739;DHT22;7461;52.440;13.540;2022-09-09T00:38:43;14.80;99.90
14739;DHT22;7461;52.440;13.540;2022-09-09T00:41:17;14.80;99.90
14739;DHT22;7461;52.440;13.540;2022-09-09T00:43:53;14.80;99.90
14739;DHT22;7461;52.440;13.540;2022-09-09T00:46:47;14.70;99.90
14739;DHT22;7461;52.440;13.540;2022-09-09T00:49:25;14.70;99.90
14739;DHT22;7461;52.440;13.540;2022-09-09T00:52:04;14.60;99.90
14739;DHT22;7461;52.440;13.540;2022-09-09T00:54:40;14.60;99.90
14739;DHT22;7461;52.440;13.540;2022-09-09T00:57:22;14.60;99.90
14739;DHT22;7461;52.440;13.540;2022-09-09T00:59:55;14.70;99.90
14739;DHT22;7461;52.440;13.540;2022-09-09T01:02:28;14.60;99.90
14739;DHT22;7461;52.440;13.540;2022-09-09T01:05:02;14.60;99.90
14739;DHT22;7461;52.440;13.540;2022-09-09T01:07:31;14.60;99.90
14739;DHT22;7461;52.440;13.540;2022-09-09T01:09:59;14.60;99.90
14739;DHT22;7461;52.440;13.540;2022-09-09T01:12:35;14.60;99.90
14739;DHT22;7461;52.440;13.540;2022-09-09T01:15:11;14.60;99.90
14739;DHT22;7461;52.440;13.540;2022-09-09T01:17:50;14.60;99.90
14739;DHT22;7461;52.440;13.540;2022-09-09T01:20:22;14.60;99.90
14739;DHT22;7461;52.440;13.540;2022-09-09T01:23:03;14.50;99.90
14739;DHT22;7461;52.440;13.540;2022-09-09T01:26:09;14.50;99.90
14739;DHT22;7461;52.440;13.540;2022-09-09T01:28:37;14.30;99.90
14739;DHT22;7461;52.440;13.540;2022-09-09T01:31:06;14.30;99.90
14739;DHT22;7461;52.440;13.540;2022-09-09T01:33:34;14.40;99.90
14739;DHT22;7461;52.440;13.540;2022-09-09T01:36:03;14.40;99.90
14739;DHT22;7461;52.440;13.540;2022-09-09T01:38:32;14.40;99.90
14739;DHT22;7461;52.440;13.540;2022-09-09T01:41:02;14.40;99.90
14739;DHT22;7461;52.440;13.540;2022-09-09T01:43:30;14.40;99.90
14739;DHT22;7461;52.440;13.540;2022-09-09T01:46:00;14.40;99.90
14739;DHT22;7461;52.440;13.540;2022-09-09T01:48:28;14.30;99.90
14739;DHT22;7461;52.440;13.540;2022-09-09T01:50:55;14.30;99.90
14739;DHT22;7461;52.440;13.540;2022-09-09T01:53:22;14.20;99.90
14739;DHT22;7461;52.440;13.540;2022-09-09T01:55:58;14.20;99.90
14739;DHT22;7461;52.440;13.540;2022-09-09T01:58:37;14.20;99.90
14739;DHT22;7461;52.440;13.540;2022-09-09T02:01:17;14.20;99.90
14739;DHT22;7461;52.440;13.540;2022-09-09T02:03:52;14.20;99.90
14739;DHT22;7461;52.440;13.540;2022-09-09T02:06:27;14.30;99.90
14739;DHT22;7461;52.440;13.540;2022-09-09T02:08:56;14.20;99.90
14739;DHT22;7461;52.440;13.540;2022-09-09T02:11:26;14.20;99.90
14739;DHT22;7461;52.440;13.540;2022-09-09T02:13:59;14.20;99.90
14739;DHT22;7461;52.440;13.540;2022-09-09T02:16:30;14.30;99.90
14739;DHT22;7461;52.440;13.540;2022-09-09T02:19:02;14.30;99.90
14739;DHT22;7461;52.440;13.540;2022-09-09T02:21:33;14.30;99.90
14739;DHT22;7461;52.440;13.540;2022-09-09T02:24:04;14.30;99.90
14739;DHT22;7461;52.440;13.540;2022-09-09T02:26:34;14.30;99.90
14739;DHT22;7461;52.440;13.540;2022-09-09T02:29:08;14.20;99.90
14739;DHT22;7461;52.440;13.540;2022-09-09T02:31:37;14.10;99.90
14739;DHT22;7461;52.440;13.540;2022-09-09T02:34:05;14.10;99.90
14739;DHT22;7461;52.440;13.540;2022-09-09T02:36:37;14.10;99.90
14739;DHT22;7461;52.440;13.540;2022-09-09T02:39:07;14.10;99.90
14739;DHT22;7461;52.440;13.540;2022-09-09T02:41:36;14.10;99.90
14739;DHT22;7461;52.440;13.540;2022-09-09T02:44:10;14.10;99.90
14739;DHT22;7461;52.440;13.540;2022-09-09T02:46:52;14.00;99.90
14739;DHT22;7461;52.440;13.540;2022-09-09T02:49:31;14.00;99.90
14739;DHT22;7461;52.440;13.540;2022-09-09T02:52:02;14.00;99.90
14739;DHT22;7461;52.440;13.540;2022-09-09T02:54:32;14.00;99.90
14739;DHT22;7461;52.440;13.540;2022-09-09T02:57:03;14.10;99.90
14739;DHT22;7461;52.440;13.540;2022-09-09T02:59:32;14.10;99.90
14739;DHT22;7461;52.440;13.540;2022-09-09T03:01:59;14.10;99.90
14739;DHT22;7461;52.440;13.540;2022-09-09T03:04:26;14.10;99.90
14739;DHT22;7461;52.440;13.540;2022-09-09T03:06:53;14.10;99.90
14739;DHT22;7461;52.440;13.540;2022-09-09T03:09:20;14.10;99.90
14739;DHT22;7461;52.440;13.540;2022-09-09T03:11:47;14.10;99.90
14739;DHT22;7461;52.440;13.540;2022-09-09T03:14:14;14.10;99.90
14739;DHT22;7461;52.440;13.540;2022-09-09T03:16:43;14.20;99.90
14739;DHT22;7461;52.440;13.540;2022-09-09T03:19:10;14.10;99.90
14739;DHT22;7461;52.440;13.540;2022-09-09T03:21:37;14.10;99.90
14739;DHT22;7461;52.440;13.540;2022-09-09T03:24:04;14.10;99.90
14739;DHT22;7461;52.440;13.540;2022-09-09T03:26:32;14.10;99.90
14739;DHT22;7461;52.440;13.540;2022-09-09T03:28:59;14.10;99.90
14739;DHT22;7461;52.440;13.540;2022-09-09T03:31:26;14.10;99.90
14739;DHT22;7461;52.440;13.540;2022-09-09T03:33:57;14.10;99.90
14739;DHT22;7461;52.440;13.540;2022-09-09T03:36:25;14.20;99.90
14739;DHT22;7461;52.440;13.540;2022-09-09T03:38:53;14.00;99.90
14739;DHT22;7461;52.440;13.540;2022-09-09T03:41:20;14.00;99.90
14739;DHT22;7461;52.440;13.540;2022-09-09T03:43:49;13.90;99.90
14739;DHT22;7461;52.440;13.540;2022-09-09T03:46:16;13.90;99.90
14739;DHT22;7461;52.440;13.540;2022-09-09T03:48:43;13.90;99.90
14739;DHT22;7461;52.440;13.540;2022-09-09T03:51:11;14.00;99.90
14739;DHT22;7461;52.440;13.540;2022-09-09T03:53:38;14.00;99.90
14739;DHT22;7461;52.440;13.540;2022-09-09T03:56:06;14.00;99.90
14739;DHT22;7461;52.440;13.540;2022-09-09T03:58:33;14.10;99.90
14739;DHT22;7461;52.440;13.540;2022-09-09T04:01:02;14.10;99.90
14739;DHT22;7461;52.440;13.540;2022-09-09T04:03:30;14.00;99.90
14739;DHT22;7461;52.440;13.540;2022-09-09T04:05:58;14.10;99.90
14739;DHT22;7461;52.440;13.540;2022-09-09T04:08:26;14.10;99.90
14739;DHT22;7461;52.440;13.540;2022-09-09T04:10:54;14.00;99.90
14739;DHT22;7461;52.440;13.540;2022-09-09T04:13:23;14.00;99.90
14739;DHT22;7461;52.440;13.540;2022-09-09T04:15:51;14.00;99.90
14739;DHT22;7461;52.440;13.540;2022-09-09T04:18:19;14.00;99.90
14739;DHT22;7461;52.440;13.540;2022-09-09T04:20:46;14.00;99.90
14739;DHT22;7461;52.440;13.540;2022-09-09T04:23:14;13.90;99.90
14739;DHT22;7461;52.440;13.540;2022-09-09T04:25:45;13.90;99.90
14739;DHT22;7461;52.440;13.540;2022-09-09T04:28:12;13.80;99.90
14739;DHT22;7461;52.440;13.540;2022-09-09T04:30:39;13.80;99.90
14739;DHT22;7461;52.440;13.540;2022-09-09T04:33:06;13.80;99.90
14739;DHT22;7461;52.440;13.540;2022-09-09T04:35:33;13.80;99.90
14739;DHT22;7461;52.440;13.540;2022-09-09T04:38:00;13.80;99.90
14739;DHT22;7461;52.440;13.540;2022-09-09T04:40:28;13.90;99.90
14739;DHT22;7461;52.440;13.540;2022-09-09T04:42:57;13.90;99.90
14739;DHT22;7461;52.440;13.540;2022-09-09T04:45:24;13.80;99.90
14739;DHT22;7461;52.440;13.540;2022-09-09T04:47:51;13.80;99.90
14739;DHT22;7461;52.440;13.540;2022-09-09T04:50:18;13.80;99.90
14739;DHT22;7461;52.440;13.540;2022-09-09T04:52:45;13.80;99.90
14739;DHT22;7461;52.440;13.540;2022-09-09T04:55:13;13.80;99.90
14739;DHT22;7461;52.440;13.540;2022-09-09T04:57:40;13.80;99.90
14739;DHT22;7461;52.440;13.540;2022-09-09T05:00:10;13.80;99.90
14739;DHT22;7461;52.440;13.540;2022-09-09T05:02:38;13.80;99.90
14739;DHT22;7461;52.440;13.540;2022-09-09T05:05:06;13.80;99.90
14739;DHT22;7461;52.440;13.540;2022-09-09T05:07:33;13.70;99.90
14739;DHT22;7461;52.440;13.540;2022-09-09T05:09:59;13.70;99.90
14739;DHT22;7461;52.440;13.540;2022-09-09T05:12:26;13.70;99.90
14739;DHT22;7461;52.440;13.540;2022-09-09T05:14:54;13.70;99.90
14739;DHT22;7461;52.440;13.540;2022-09-09T05:17:22;13.70;99.90
14739;DHT22;7461;52.440;13.540;2022-09-09T05:19:49;13.80;99.90
14739;DHT22;7461;52.440;13.540;2022-09-09T05:22:18;13.80;99.90
14739;DHT22;7461;52.440;13.540;2022-09-09T05:24:46;13.90;99.90
14739;DHT22;7461;52.440;13.540;2022-09-09T05:27:16;13.90;99.90
14739;DHT22;7461;52.440;13.540;2022-09-09T05:29:43;13.90;99.90
14739;DHT22;7461;52.440;13.540;2022-09-09T05:32:10;14.00;99.90
14739;DHT22;7461;52.440;13.540;2022-09-09T05:34:38;14.00;99.90
14739;DHT22;7461;52.440;13.540;2022-09-09T05:37:05;14.10;99.90
14739;DHT22;7461;52.440;13.540;2022-09-09T05:39:33;14.10;99.90
14739;DHT22;7461;52.440;13.540;2022-09-09T05:42:01;14.00;99.90
14739;DHT22;7461;52.440;13.540;2022-09-09T05:44:30;14.10;99.90
14739;DHT22;7461;52.440;13.540;2022-09-09T05:46:57;14.10;99.90
14739;DHT22;7461;52.440;13.540;2022-09-09T05:49:24;14.10;99.90
14739;DHT22;7461;52.440;13.540;2022-09-09T05:51:52;14.20;99.90
14739;DHT22;7461;52.440;13.540;2022-09-09T05:54:19;14.20;99.90
14739;DHT22;7461;52.440;13.540;2022-09-09T05:56:46;14.20;99.90
14739;DHT22;7461;52.440;13.540;2022-09-09T05:59:16;14.20;99.90
14739;DHT22;7461;52.440;13.540;2022-09-09T06:01:43;14.20;99.90
14739;DHT22;7461;52.440;13.540;2022-09-09T06:04:10;14.30;99.90
14739;DHT22;7461;52.440;13.540;2022-09-09T06:06:38;14.20;99.90
14739;DHT22;7461;52.440;13.540;2022-09-09T06:09:08;14.30;99.90
14739;DHT22;7461;52.440;13.540;2022-09-09T06:11:37;14.30;99.90
14739;DHT22;7461;52.440;13.540;2022-09-09T06:14:05;14.30;99.90
14739;DHT22;7461;52.440;13.540;2022-09-09T06:16:32;14.40;99.90
14739;DHT22;7461;52.440;13.540;2022-09-09T06:18:59;14.40;99.90
14739;DHT22;7461;52.440;13.540;2022-09-09T06:21:28;14.40;99.90
14739;DHT22;7461;52.440;13.540;2022-09-09T06:23:56;14.40;99.90
14739;DHT22;7461;52.440;13.540;2022-09-09T06:26:25;14.40;99.90
14739;DHT22;7461;52.440;13.540;2022-09-09T06:28:53;14.50;99.90
14739;DHT22;7461;52.440;13.540;2022-09-09T06:31:21;14.50;99.90
14739;DHT22;7461;52.440;13.540;2022-09-09T06:33:49;14.60;99.90
14739;DHT22;7461;52.440;13.540;2022-09-09T06:36:18;14.60;99.90
14739;DHT22;7461;52.440;13.540;2022-09-09T06:38:46;14.70;99.90
14739;DHT22;7461;52.440;13.540;2022-09-09T06:41:15;14.70;99.90
14739;DHT22;7461;52.440;13.540;2022-09-09T06:43:44;14.70;99.90
14739;DHT22;7461;52.440;13.540;2022-09-09T06:46:12;14.80;99.90
14739;DHT22;7461;52.440;13.540;2022-09-09T06:48:39;14.90;99.90
14739;DHT22;7461;52.440;13.540;2022-09-09T06:51:09;14.90;99.90
14739;DHT22;7461;52.440;13.540;2022-09-09T06:53:37;15.00;99.90
14739;DHT22;7461;52.440;13.540;2022-09-09T06:56:18;15.00;99.90
14739;DHT22;7461;52.440;13.540;2022-09-09T06:58:47;15.00;99.90
14739;DHT22;7461;52.440;13.540;2022-09-09T07:01:16;15.10;99.90
14739;DHT22;7461;52.440;13.540;2022-09-09T07:03:46;15.20;99.90
14739;DHT22;7461;52.440;13.540;2022-09-09T07:06:14;15.20;99.90
14739;DHT22;7461;52.440;13.540;2022-09-09T07:08:43;15.30;99.90
14739;DHT22;7461;52.440;13.540;2022-09-09T07:11:10;15.30;99.90
14739;DHT22;7461;52.440;13.540;2022-09-09T07:13:37;15.40;99.90
14739;DHT22;7461;52.440;13.540;2022-09-09T07:16:07;15.40;99.90
14739;DHT22;7461;52.440;13.540;2022-09-09T07:18:34;15.50;99.90
14739;DHT22;7461;52.440;13.540;2022-09-09T07:21:02;15.50;99.90
14739;DHT22;7461;52.440;13.540;2022-09-09T07:23:29;15.50;99.90
14739;DHT22;7461;52.440;13.540;2022-09-09T07:25:56;15.60;99.90
14739;DHT22;7461;52.440;13.540;2022-09-09T07:28:24;15.60;99.90
14739;DHT22;7461;52.440;13.540;2022-09-09T07:30:54;15.60;99.90
14739;DHT22;7461;52.440;13.540;2022-09-09T07:33:23;15.60;99.90
14739;DHT22;7461;52.440;13.540;2022-09-09T07:35:51;15.70;99.90
14739;DHT22;7461;52.440;13.540;2022-09-09T07:38:18;15.70;99.90
14739;DHT22;7461;52.440;13.540;2022-09-09T07:40:45;15.80;99.90
14739;DHT22;7461;52.440;13.540;2022-09-09T07:43:12;15.80;99.90
14739;DHT22;7461;52.440;13.540;2022-09-09T07:45:39;15.90;99.90
14739;DHT22;7461;52.440;13.540;2022-09-09T07:48:08;15.90;99.90
14739;DHT22;7461;52.440;13.540;2022-09-09T07:50:36;15.90;99.90
14739;DHT22;7461;52.440;13.540;2022-09-09T07:53:04;16.00;99.90
14739;DHT22;7461;52.440;13.540;2022-09-09T07:55:31;16.10;99.90
14739;DHT22;7461;52.440;13.540;2022-09-09T07:57:58;16.20;99.90
14739;DHT22;7461;52.440;13.540;2022-09-09T08:00:25;16.30;99.90
14739;DHT22;7461;52.440;13.540;2022-09-09T08:02:54;16.30;99.90
14739;DHT22;7461;52.440;13.540;2022-09-09T08:05:20;16.30;99.90
14739;DHT22;7461;52.440;13.540;2022-09-09T08:07:49;16.40;99.90
14739;DHT22;7461;52.440;13.540;2022-09-09T08:10:16;16.50;99.90
14739;DHT22;7461;52.440;13.540;2022-09-09T08:12:43;16.50;99.90
14739;DHT22;7461;52.440;13.540;2022-09-09T08:15:11;16.60;99.90
14739;DHT22;7461;52.440;13.540;2022-09-09T08:17:37;16.70;99.90
14739;DHT22;7461;52.440;13.540;2022-09-09T08:20:05;16.80;99.90
14739;DHT22;7461;52.440;13.540;2022-09-09T08:22:35;17.00;99.90
14739;DHT22;7461;52.440;13.540;2022-09-09T08:25:05;17.00;99.90
14739;DHT22;7461;52.440;13.540;2022-09-09T08:27:34;17.20;99.90
14739;DHT22;7461;52.440;13.540;2022-09-09T08:30:00;17.30;99.90
14739;DHT22;7461;52.440;13.540;2022-09-09T08:32:27;17.50;99.90
14739;DHT22;7461;52.440;13.540;2022-09-09T08:34:54;17.50;99.90
14739;DHT22;7461;52.440;13.540;2022-09-09T08:37:21;17.70;99.90
14739;DHT22;7461;52.440;13.540;2022-09-09T08:39:48;17.80;99.90
14739;DHT22;7461;52.440;13.540;2022-09-09T08:42:30;17.80;99.90
14739;DHT22;7461;52.440;13.540;2022-09-09T08:47:54;17.80;99.90
14739;DHT22;7461;52.440;13.540;2022-09-09T08:50:28;17.80;99.90
14739;DHT22;7461;52.440;13.540;2022-09-09T08:53:00;17.80;99.90
14739;DHT22;7461;52.440;13.540;2022-09-09T08:55:35;17.80;99.90
14739;DHT22;7461;52.440;13.540;2022-09-09T08:58:11;17.80;99.90
14739;DHT22;7461;52.440;13.540;2022-09-09T09:03:40;17.80;99.90
14739;DHT22;7461;52.440;13.540;2022-09-09T09:06:22;17.80;99.90
14739;DHT22;7461;52.440;13.540;2022-09-09T09:08:56;17.90;99.90
14739;DHT22;7461;52.440;13.540;2022-09-09T09:11:24;17.90;99.90
14739;DHT22;7461;52.440;13.540;2022-09-09T09:13:56;17.90;99.90
14739;DHT22;7461;52.440;13.540;2022-09-09T09:16:30;18.10;99.90
14739;DHT22;7461;52.440;13.540;2022-09-09T09:19:00;18.30;99.90
14739;DHT22;7461;52.440;13.540;2022-09-09T09:21:34;18.40;99.90
14739;DHT22;7461;52.440;13.540;2022-09-09T09:24:04;18.50;99.90
14739;DHT22;7461;52.440;13.540;2022-09-09T09:26:35;18.60;99.90
14739;DHT22;7461;52.440;13.540;2022-09-09T09:29:11;18.80;99.90
14739;DHT22;7461;52.440;13.540;2022-09-09T09:31:43;19.00;99.90
14739;DHT22;7461;52.440;13.540;2022-09-09T09:34:11;19.10;99.90
14739;DHT22;7461;52.440;13.540;2022-09-09T09:36:41;19.20;99.90
14739;DHT22;7461;52.440;13.540;2022-09-09T09:39:10;19.30;99.90
14739;DHT22;7461;52.440;13.540;2022-09-09T09:41:40;19.40;99.90
14739;DHT22;7461;52.440;13.540;2022-09-09T09:44:23;19.50;99.90
14739;DHT22;7461;52.440;13.540;2022-09-09T09:46:51;19.60;99.90
14739;DHT22;7461;52.440;13.540;2022-09-09T09:49:18;19.80;99.90
14739;DHT22;7461;52.440;13.540;2022-09-09T09:51:45;20.10;99.90
14739;DHT22;7461;52.440;13.540;2022-09-09T09:54:22;20.20;99.90
14739;DHT22;7461;52.440;13.540;2022-09-09T09:56:54;20.30;99.90
14739;DHT22;7461;52.440;13.540;2022-09-09T09:59:33;20.30;99.90
14739;DHT22;7461;52.440;13.540;2022-09-09T10:02:17;20.50;99.90
14739;DHT22;7461;52.440;13.540;2022-09-09T10:04:45;20.50;99.90
14739;DHT22;7461;52.440;13.540;2022-09-09T10:07:12;20.50;99.90
14739;DHT22;7461;52.440;13.540;2022-09-09T10:09:40;20.60;99.90
14739;DHT22;7461;52.440;13.540;2022-09-09T10:12:15;20.80;99.90
14739;DHT22;7461;52.440;13.540;2022-09-09T10:14:55;20.70;99.90
14739;DHT22;7461;52.440;13.540;2022-09-09T10:17:28;20.70;99.90
14739;DHT22;7461;52.440;13.540;2022-09-09T10:20:16;21.00;99.90
14739;DHT22;7461;52.440;13.540;2022-09-09T10:22:49;21.00;99.90
14739;DHT22;7461;52.440;13.540;2022-09-09T10:28:29;20.90;99.90
14739;DHT22;7461;52.440;13.540;2022-09-09T10:31:10;20.90;99.90
14739;DHT22;7461;52.440;13.540;2022-09-09T10:33:47;20.80;99.90
14739;DHT22;7461;52.440;13.540;2022-09-09T10:36:19;20.80;99.90
14739;DHT22;7461;52.440;13.540;2022-09-09T10:38:48;20.90;99.90
14739;DHT22;7461;52.440;13.540;2022-09-09T10:41:20;20.90;99.90
14739;DHT22;7461;52.440;13.540;2022-09-09T10:47:02;20.70;99.90
14739;DHT22;7461;52.440;13.540;2022-09-09T10:49:53;20.70;99.90
14739;DHT22;7461;52.440;13.540;2022-09-09T10:52:28;20.70;99.90
14739;DHT22;7461;52.440;13.540;2022-09-09T10:55:01;20.60;99.90
14739;DHT22;7461;52.440;13.540;2022-09-09T10:57:35;20.60;99.90
14739;DHT22;7461;52.440;13.540;2022-09-09T11:00:05;20.60;99.90
14739;DHT22;7461;52.440;13.540;2022-09-09T11:02:34;20.70;99.90
14739;DHT22;7461;52.440;13.540;2022-09-09T11:05:05;20.90;99.90
14739;DHT22;7461;52.440;13.540;2022-09-09T11:07:39;20.90;99.90
14739;DHT22;7461;52.440;13.540;2022-09-09T11:10:18;21.00;99.90
14739;DHT22;7461;52.440;13.540;2022-09-09T11:12:51;21.00;99.90
14739;DHT22;7461;52.440;13.540;2022-09-09T11:15:22;20.90;99.90
14739;DHT22;7461;52.440;13.540;2022-09-09T11:17:55;20.90;99.90
14739;DHT22;7461;52.440;13.540;2022-09-09T11:20:23;21.00;99.90
14739;DHT22;7461;52.440;13.540;2022-09-09T11:22:52;21.10;99.90
14739;DHT22;7461;52.440;13.540;2022-09-09T11:25:25;21.10;99.90
14739;DHT22;7461;52.440;13.540;2022-09-09T11:28:20;21.10;99.90
14739;DHT22;7461;52.440;13.540;2022-09-09T11:30:57;21.20;99.90
14739;DHT22;7461;52.440;13.540;2022-09-09T11:33:51;21.20;99.90
14739;DHT22;7461;52.440;13.540;2022-09-09T11:39:43;21.20;99.90
14739;DHT22;7461;52.440;13.540;2022-09-09T11:42:18;21.30;99.90
14739;DHT22;7461;52.440;13.540;2022-09-09T11:44:45;21.40;99.90
14739;DHT22;7461;52.440;13.540;2022-09-09T11:47:20;21.30;99.90
14739;DHT22;7461;52.440;13.540;2022-09-09T11:49:51;21.30;99.90
14739;DHT22;7461;52.440;13.540;2022-09-09T11:52:22;21.30;99.90
14739;DHT22;7461;52.440;13.540;2022-09-09T11:54:51;21.40;99.90
14739;DHT22;7461;52.440;13.540;2022-09-09T11:57:24;21.40;99.90
14739;DHT22;7461;52.440;13.540;2022-09-09T11:59:52;21.50;99.90
14739;DHT22;7461;52.440;13.540;2022-09-09T12:02:23;21.50;99.90
14739;DHT22;7461;52.440;13.540;2022-09-09T12:04:59;21.50;99.90
14739;DHT22;7461;52.440;13.540;2022-09-09T12:07:37;21.50;99.90
14739;DHT22;7461;52.440;13.540;2022-09-09T12:10:20;21.60;99.90
14739;DHT22;7461;52.440;13.540;2022-09-09T12:12:49;21.60;99.90
14739;DHT22;7461;52.440;13.540;2022-09-09T12:15:25;21.60;99.90
14739;DHT22;7461;52.440;13.540;2022-09-09T12:17:56;21.70;99.90
14739;DHT22;7461;52.440;13.540;2022-09-09T12:20:31;21.80;99.90
14739;DHT22;7461;52.440;13.540;2022-09-09T12:23:13;21.90;99.90
14739;DHT22;7461;52.440;13.540;2022-09-09T12:25:57;21.90;99.90
14739;DHT22;7461;52.440;13.540;2022-09-09T12:28:43;21.90;99.90
14739;DHT22;7461;52.440;13.540;2022-09-09T12:31:15;21.90;99.90
14739;DHT22;7461;52.440;13.540;2022-09-09T12:33:45;21.80;99.90
14739;DHT22;7461;52.440;13.540;2022-09-09T12:36:17;21.70;99.90
14739;DHT22;7461;52.440;13.540;2022-09-09T12:38:45;21.70;99.90
14739;DHT22;7461;52.440;13.540;2022-09-09T12:41:20;21.70;99.90
14739;DHT22;7461;52.440;13.540;2022-09-09T12:43:47;21.70;99.90
14739;DHT22;7461;52.440;13.540;2022-09-09T12:46:23;21.70;99.90
14739;DHT22;7461;52.440;13.540;2022-09-09T12:48:54;21.60;99.90
14739;DHT22;7461;52.440;13.540;2022-09-09T12:51:26;21.50;99.90
14739;DHT22;7461;52.440;13.540;2022-09-09T12:53:55;21.60;99.90
14739;DHT22;7461;52.440;13.540;2022-09-09T12:56:24;21.60;99.90
14739;DHT22;7461;52.440;13.540;2022-09-09T12:58:53;21.70;99.90
14739;DHT22;7461;52.440;13.540;2022-09-09T13:01:23;21.70;99.90
14739;DHT22;7461;52.440;13.540;2022-09-09T13:03:50;21.70;99.90
14739;DHT22;7461;52.440;13.540;2022-09-09T13:06:21;21.60;99.90
14739;DHT22;7461;52.440;13.540;2022-09-09T13:08:51;21.60;99.90
14739;DHT22;7461;52.440;13.540;2022-09-09T13:11:21;21.60;99.90
14739;DHT22;7461;52.440;13.540;2022-09-09T13:13:54;21.60;99.90
14739;DHT22;7461;52.440;13.540;2022-09-09T13:16:25;21.50;99.90
14739;DHT22;7461;52.440;13.540;2022-09-09T13:18:56;21.50;99.90
14739;DHT22;7461;52.440;13.540;2022-09-09T13:21:32;21.50;99.90
14739;DHT22;7461;52.440;13.540;2022-09-09T13:24:01;21.40;99.90
14739;DHT22;7461;52.440;13.540;2022-09-09T13:26:29;21.40;99.90
14739;DHT22;7461;52.440;13.540;2022-09-09T13:29:14;21.30;99.90
14739;DHT22;7461;52.440;13.540;2022-09-09T13:31:43;21.30;99.90
14739;DHT22;7461;52.440;13.540;2022-09-09T13:34:14;21.30;99.90
14739;DHT22;7461;52.440;13.540;2022-09-09T13:36:55;21.30;99.90
14739;DHT22;7461;52.440;13.540;2022-09-09T13:39:26;21.30;99.90
14739;DHT22;7461;52.440;13.540;2022-09-09T13:41:52;21.30;99.90
14739;DHT22;7461;52.440;13.540;2022-09-09T13:44:23;21.20;99.90
14739;DHT22;7461;52.440;13.540;2022-09-09T13:47:00;21.20;99.90
14739;DHT22;7461;52.440;13.540;2022-09-09T13:49:29;21.20;99.90
14739;DHT22;7461;52.440;13.540;2022-09-09T13:52:14;21.20;99.90
14739;DHT22;7461;52.440;13.540;2022-09-09T13:54:47;21.10;99.90
14739;DHT22;7461;52.440;13.540;2022-09-09T13:57:16;21.00;99.90
14739;DHT22;7461;52.440;13.540;2022-09-09T13:59:48;21.10;99.90
14739;DHT22;7461;52.440;13.540;2022-09-09T14:02:23;21.00;99.90
14739;DHT22;7461;52.440;13.540;2022-09-09T14:04:50;21.00;99.90
14739;DHT22;7461;52.440;13.540;2022-09-09T14:07:21;21.00;99.90
14739;DHT22;7461;52.440;13.540;2022-09-09T14:09:49;21.00;99.90
14739;DHT22;7461;52.440;13.540;2022-09-09T14:12:17;20.90;99.90
14739;DHT22;7461;52.440;13.540;2022-09-09T14:14:45;20.90;99.90
14739;DHT22;7461;52.440;13.540;2022-09-09T14:17:12;20.90;99.90
14739;DHT22;7461;52.440;13.540;2022-09-09T14:19:40;20.80;99.90
14739;DHT22;7461;52.440;13.540;2022-09-09T14:22:08;20.80;99.90
14739;DHT22;7461;52.440;13.540;2022-09-09T14:24:37;20.70;99.90
14739;DHT22;7461;52.440;13.540;2022-09-09T14:27:05;20.60;99.90
14739;DHT22;7461;52.440;13.540;2022-09-09T14:29:33;20.60;99.90
14739;DHT22;7461;52.440;13.540;2022-09-09T14:32:00;20.50;99.90
14739;DHT22;7461;52.440;13.540;2022-09-09T14:34:27;20.60;99.90
14739;DHT22;7461;52.440;13.540;2022-09-09T14:36:55;20.60;99.90
14739;DHT22;7461;52.440;13.540;2022-09-09T14:39:22;20.60;99.90
14739;DHT22;7461;52.440;13.540;2022-09-09T14:41:52;20.70;99.90
14739;DHT22;7461;52.440;13.540;2022-09-09T14:44:49;20.80;99.90
14739;DHT22;7461;52.440;13.540;2022-09-09T14:47:27;20.80;99.90
14739;DHT22;7461;52.440;13.540;2022-09-09T14:50:04;20.80;99.90
14739;DHT22;7461;52.440;13.540;2022-09-09T14:52:33;20.80;99.90
14739;DHT22;7461;52.440;13.540;2022-09-09T14:55:00;20.80;99.90
14739;DHT22;7461;52.440;13.540;2022-09-09T14:57:27;20.80;99.90
14739;DHT22;7461;52.440;13.540;2022-09-09T14:59:56;20.70;99.90
14739;DHT22;7461;52.440;13.540;2022-09-09T15:02:23;20.80;99.90
14739;DHT22;7461;52.440;13.540;2022-09-09T15:04:50;20.70;99.90
14739;DHT22;7461;52.440;13.540;2022-09-09T15:07:18;20.70;99.90
14739;DHT22;7461;52.440;13.540;2022-09-09T15:09:45;20.70;99.90
14739;DHT22;7461;52.440;13.540;2022-09-09T15:12:14;20.70;99.90
14739;DHT22;7461;52.440;13.540;2022-09-09T15:14:41;20.70;99.90
14739;DHT22;7461;52.440;13.540;2022-09-09T15:17:09;20.60;99.90
14739;DHT22;7461;52.440;13.540;2022-09-09T15:19:36;20.60;99.90
14739;DHT22;7461;52.440;13.540;2022-09-09T15:22:04;20.60;99.90
14739;DHT22;7461;52.440;13.540;2022-09-09T15:24:32;20.50;99.90
14739;DHT22;7461;52.440;13.540;2022-09-09T15:26:59;20.40;99.90
14739;DHT22;7461;52.440;13.540;2022-09-09T15:29:26;20.40;99.90
14739;DHT22;7461;52.440;13.540;2022-09-09T15:31:53;20.40;99.90
14739;DHT22;7461;52.440;13.540;2022-09-09T15:34:22;20.40;99.90
14739;DHT22;7461;52.440;13.540;2022-09-09T15:36:49;20.40;99.90
14739;DHT22;7461;52.440;13.540;2022-09-09T15:39:17;20.40;99.90
14739;DHT22;7461;52.440;13.540;2022-09-09T15:41:45;20.40;99.90
14739;DHT22;7461;52.440;13.540;2022-09-09T15:44:12;20.40;99.90
14739;DHT22;7461;52.440;13.540;2022-09-09T15:46:40;20.40;99.90
14739;DHT22;7461;52.440;13.540;2022-09-09T15:49:10;20.30;99.90
14739;DHT22;7461;52.440;13.540;2022-09-09T15:51:41;20.30;99.90
14739;DHT22;7461;52.440;13.540;2022-09-09T15:54:10;20.20;99.90
14739;DHT22;7461;52.440;13.540;2022-09-09T15:56:37;20.20;99.90
14739;DHT22;7461;52.440;13.540;2022-09-09T15:59:04;20.20;99.90
14739;DHT22;7461;52.440;13.540;2022-09-09T16:01:32;20.10;99.90
14739;DHT22;7461;52.440;13.540;2022-09-09T16:03:59;20.10;99.90
14739;DHT22;7461;52.440;13.540;2022-09-09T16:06:28;20.10;99.90